Terminal Aerodrome Forecast
Issued by NWS

Home | Current Version | Previous Version | Text Only | Print | Product List | Glossary On
Versions: 1 2 3 4 5 6 7 8 9 10 11 12 13
000
FTUS41 KPBZ 041139
TAFDUJ
TAF
KDUJ 041139Z 0412/0512 20005KT P6SM SCT090 SCT250
     FM041600 23012G20KT P6SM SCT060 BKN250
     FM050500 22007KT P6SM -SHRA OVC035
     FM051000 26007KT 4SM -SHRA BR OVC015=

USA.gov is the U.S. government's official web portal to all federal, state and local government web resources and services.